Baldwinsville, NY

1:14 PM EST on December 02, 2016 (GMT -0500)
Abbott Farms | | Change Station

Elev 502 ft 43.15 °N, 76.28 °W | Updated 54 seconds ago

Overcast
Overcast
43.7 °F
Feels Like 44 °F
N
1.4
Wind Variable Wind from WSW
Gusts 9.0 mph

Today
High -- | Low -- °F
--% Chance of Precip.
Yesterday
High -- | Low -- °F
Precip. -- in
Pressure 29.80 in
Visibility 10.0 miles
Clouds Few 4300 ft
Scattered Clouds 5000 ft
Overcast 7000 ft
Windchill 44 °F
Dew Point 33 °F
Humidity 64%
Rainfall 0.00 in
Snow Depth Not available.
7:18 AM 4:30 PM
Waxing Crescent, 9% visible
METAR KSYR 021754Z 26017KT 10SM FEW043 SCT050 OVC070 06/M01 A2980 RMK AO2 PK WND 26028/1655 CIG 050 NW SLP091 60000 T00611011 10067 20050 58008
Pressure 29.80 in
Visibility 10.0 miles
Clouds Few 4300 ft
Scattered Clouds 5000 ft
Overcast 7000 ft
Windchill 44 °F
Dew Point 33 °F
Humidity 64%
Rainfall 0.00 in
Snow Depth Not available.
7:18 AM 4:30 PM
Waxing Crescent, 9% visible
METAR KSYR 021754Z 26017KT 10SM FEW043 SCT050 OVC070 06/M01 A2980 RMK AO2 PK WND 26028/1655 CIG 050 NW SLP091 60000 T00611011 10067 20050 58008

10-Day Weather Forecast

Almanac

Astronomy

Dec. 02, 2016 Rise Set
Actual Time
Civil Twilight
Nautical Twilight
Astronomical Twilight
Moon
Length of Visible Light
Length of Day
Tomorrow will be .
, % of the Moon is Illuminated

Today's Extremes

State Highs State Lows

Community

WunderPhotos

Upload Photos

1,955,335 photos uploaded!

WunderBlog® & News

Nearby

Air Quality

  Air Quality AQ Index Pollutant
Not available.

Snow Depth

Station Depth Elevation

Earthquake Activity

City Distance Mag. Time & Date
Minimum magnitude displayed is 2.5.

Coastal Water Temperatures

Place Temperature

Stations

Nearby Weather Stations

Station Location Temp. Windchill Dew Point Humidity Wind Precip. Elev Updated Type
                   

Watches & Warnings

There are currently no watches in effect.